METAR SBMG

2017121414 - METAR SBMG 141400Z 03007KT 9999 FEW030 29/21 Q1016=

Escala PR-FEA

ESCALA - SIMULADOR GA-18

Escala PR-FGM
Powered by ©Kanestech